KOQT METAR and TAF weather

Enter ICAO airport designator
Station Type Date Time Source
KOQT METAR 2018/06/25 01:53 UTC NOAA

KOQT 250153Z AUTO VRB03KT 10SM CLR 23/22 A3005 RMK AO2 SLP161 T02280222


Station Type Date Time Source
KOQT Decoded METAR 2018/06/25 01:53 UTC NOAA

OAK RIDGE, TN, United States (KOQT) 36-01N 84-14W
Jun 24, 2018 - 09:53 PM EDT / 2018.06.25 0153 UTC
Wind: Variable at 3 MPH (3 KT):0
Visibility: 10 mile(s):0
Sky conditions: clear
Temperature: 73.0 F (22.8 C)
Dew Point: 72.0 F (22.2 C)
Relative Humidity: 96%
Pressure (altimeter): 30.05 in. Hg (1017 hPa)
ob: KOQT 250153Z AUTO VRB03KT 10SM CLR 23/22 A3005 RMK AO2 SLP161 T02280222
cycle: 2

Station Type Date Time Source
KOQT TAF UTC NOAA

Error!


Example: see airport list